createdAt,value
2023-03-22T00:02:16.608Z,14.66
2023-03-22T00:04:45.744Z,14.66
2023-03-22T00:07:13.460Z,14.96
2023-03-22T00:09:41.270Z,15.02
2023-03-22T00:12:09.110Z,14.71
2023-03-22T00:14:37.108Z,14.95
2023-03-22T00:17:04.820Z,14.90
2023-03-22T00:19:34.080Z,14.69
2023-03-22T00:22:03.623Z,14.62
2023-03-22T00:24:31.361Z,15.02
2023-03-22T00:26:59.078Z,14.99
2023-03-22T00:29:26.797Z,14.47
2023-03-22T00:31:55.988Z,14.65
2023-03-22T00:34:23.665Z,14.77
2023-03-22T00:36:51.873Z,14.51
2023-03-22T00:39:21.035Z,14.87
2023-03-22T00:41:48.872Z,14.52
2023-03-22T00:44:16.646Z,14.60
2023-03-22T00:46:44.309Z,14.87
2023-03-22T00:49:12.401Z,14.45
2023-03-22T00:51:40.070Z,14.31
2023-03-22T00:54:07.745Z,14.46
2023-03-22T00:56:37.641Z,14.21
2023-03-22T00:59:08.105Z,14.76
2023-03-22T01:01:35.794Z,14.53
2023-03-22T01:04:03.726Z,14.67
2023-03-22T01:06:31.402Z,14.64
2023-03-22T01:08:59.062Z,14.44
2023-03-22T01:11:27.309Z,14.34
2023-03-22T01:13:57.200Z,14.40
2023-03-22T01:16:25.010Z,14.53
2023-03-22T01:18:52.771Z,14.39
2023-03-22T01:21:20.647Z,14.74
2023-03-22T01:23:48.303Z,14.54
2023-03-22T01:26:16.285Z,14.44
2023-03-22T01:28:43.960Z,14.76
2023-03-22T01:31:13.129Z,14.60
2023-03-22T01:33:40.810Z,14.63
2023-03-22T01:36:09.436Z,14.83
2023-03-22T01:38:37.422Z,14.75
2023-03-22T01:41:05.310Z,14.83
2023-03-22T01:43:33.112Z,14.86
2023-03-22T01:46:01.029Z,15.08
2023-03-22T01:48:34.158Z,14.97
2023-03-22T01:51:07.161Z,15.19
2023-03-22T01:53:50.396Z,15.50
2023-03-22T01:56:18.525Z,15.01
2023-03-22T01:58:47.193Z,14.75
2023-03-22T02:01:15.626Z,14.81
2023-03-22T02:03:48.978Z,14.97
2023-03-22T02:06:16.970Z,14.59
2023-03-22T02:08:44.750Z,15.09
2023-03-22T02:11:15.946Z,14.68
2023-03-22T02:14:11.663Z,14.61
2023-03-22T02:16:47.019Z,14.60
2023-03-22T02:19:42.386Z,14.71
2023-03-22T02:22:29.225Z,14.89
2023-03-22T02:25:13.719Z,14.87
2023-03-22T02:28:10.212Z,14.87
2023-03-22T02:31:03.748Z,14.85
2023-03-22T02:33:55.086Z,14.76
2023-03-22T02:36:35.438Z,14.63
2023-03-22T02:39:15.473Z,14.51
2023-03-22T02:41:58.810Z,14.67
2023-03-22T02:44:29.065Z,14.85
2023-03-22T02:47:01.962Z,15.10
2023-03-22T02:49:55.342Z,15.14
2023-03-22T02:52:27.923Z,15.25
2023-03-22T02:55:04.568Z,15.13
2023-03-22T02:57:36.774Z,14.98
2023-03-22T03:00:10.514Z,15.41
2023-03-22T03:02:39.287Z,15.01
2023-03-22T03:05:08.833Z,15.36
2023-03-22T03:07:36.707Z,14.85
2023-03-22T03:10:07.244Z,14.85
2023-03-22T03:12:35.039Z,14.52
2023-03-22T03:15:02.886Z,14.94
2023-03-22T03:17:41.988Z,15.03
2023-03-22T03:20:30.004Z,14.91
2023-03-22T03:23:09.325Z,15.01
2023-03-22T03:25:43.530Z,15.01
2023-03-22T03:28:17.556Z,15.38
2023-03-22T03:30:50.427Z,15.50
2023-03-22T03:33:19.514Z,14.88
2023-03-22T03:35:50.234Z,15.10
2023-03-22T03:38:20.444Z,14.81
2023-03-22T03:40:52.053Z,15.06
2023-03-22T03:43:20.237Z,14.96
2023-03-22T03:45:57.071Z,14.98
2023-03-22T03:48:27.999Z,15.20
2023-03-22T03:50:57.465Z,14.90
2023-03-22T03:53:25.310Z,14.96
2023-03-22T03:55:54.463Z,15.14
2023-03-22T03:58:22.148Z,15.19
2023-03-22T04:00:50.615Z,15.08
2023-03-22T04:03:18.412Z,14.80
2023-03-22T04:05:46.096Z,15.06
2023-03-22T04:08:13.912Z,14.90
2023-03-22T04:10:41.855Z,14.72
2023-03-22T04:13:10.982Z,15.19
2023-03-22T04:15:38.742Z,15.07
2023-03-22T04:18:07.129Z,14.98
2023-03-22T04:20:34.816Z,14.85
2023-03-22T04:23:02.543Z,14.55
2023-03-22T04:25:30.508Z,14.71
2023-03-22T04:28:00.567Z,14.80
2023-03-22T04:30:30.882Z,15.05
2023-03-22T04:32:58.537Z,14.78
2023-03-22T04:35:26.341Z,14.76
2023-03-22T04:37:54.024Z,14.50
2023-03-22T04:40:21.778Z,14.71
2023-03-22T04:42:49.681Z,14.76
2023-03-22T04:45:17.535Z,14.95
2023-03-22T04:47:46.634Z,14.31
2023-03-22T04:50:14.331Z,14.77
2023-03-22T04:52:42.178Z,14.62
2023-03-22T04:55:10.409Z,14.88
2023-03-22T04:57:38.170Z,14.42
2023-03-22T05:00:08.541Z,14.84
2023-03-22T05:02:40.009Z,14.82
2023-03-22T05:05:10.526Z,14.80
2023-03-22T05:07:39.253Z,14.51
2023-03-22T05:10:08.245Z,14.34
2023-03-22T05:12:35.900Z,14.32
2023-03-22T05:15:06.131Z,14.43
2023-03-22T05:17:33.847Z,14.42
2023-03-22T05:20:08.605Z,14.65
2023-03-22T05:22:40.581Z,14.78
2023-03-22T05:25:10.187Z,14.56
2023-03-22T05:27:39.114Z,14.60
2023-03-22T05:30:08.524Z,14.20
2023-03-22T05:32:37.578Z,14.55
2023-03-22T05:35:06.439Z,14.29
2023-03-22T05:37:34.138Z,14.71
2023-03-22T05:40:05.333Z,14.58
2023-03-22T05:42:33.405Z,14.55
2023-03-22T05:45:01.117Z,14.56
2023-03-22T05:47:28.816Z,14.46
2023-03-22T05:49:56.532Z,14.48
2023-03-22T05:52:24.226Z,14.65
2023-03-22T05:54:51.882Z,14.69
2023-03-22T05:57:21.236Z,14.73
2023-03-22T05:59:48.926Z,14.67
2023-03-22T06:02:16.713Z,14.89
2023-03-22T06:04:44.613Z,14.42
2023-03-22T06:07:12.439Z,14.43
2023-03-22T06:09:40.372Z,14.44
2023-03-22T06:12:08.480Z,14.33
2023-03-22T06:14:37.655Z,14.55
2023-03-22T06:17:05.585Z,14.59
2023-03-22T06:19:33.425Z,14.75
2023-03-22T06:22:01.769Z,14.74
2023-03-22T06:24:29.539Z,14.86
2023-03-22T06:26:57.224Z,14.57
2023-03-22T06:29:24.916Z,14.95
2023-03-22T06:31:53.983Z,14.91
2023-03-22T06:34:21.719Z,15.03
2023-03-22T06:36:51.551Z,14.59
2023-03-22T06:39:19.206Z,14.96
2023-03-22T06:41:47.336Z,14.90
2023-03-22T06:44:15.774Z,15.02
2023-03-22T06:46:43.518Z,15.37
2023-03-22T06:49:12.639Z,14.92
2023-03-22T06:51:40.388Z,15.27
2023-03-22T06:54:08.066Z,15.14
2023-03-22T06:56:35.754Z,15.30
2023-03-22T06:59:03.460Z,15.44
2023-03-22T07:01:31.313Z,15.27
2023-03-22T07:03:59.076Z,15.36
2023-03-22T07:06:28.369Z,15.17
2023-03-22T07:08:56.456Z,15.01
2023-03-22T07:11:25.937Z,15.39
2023-03-22T07:13:54.221Z,15.11
2023-03-22T07:16:22.630Z,15.33
2023-03-22T07:18:50.767Z,15.10
2023-03-22T07:21:18.448Z,15.23
2023-03-22T07:23:49.446Z,15.01
2023-03-22T07:26:17.109Z,15.37
2023-03-22T07:28:44.892Z,15.25
2023-03-22T07:31:13.651Z,15.71
2023-03-22T07:33:41.604Z,15.28
2023-03-22T07:36:10.501Z,15.81
2023-03-22T07:38:38.400Z,16.03
2023-03-22T07:41:08.060Z,15.87
2023-03-22T07:43:50.802Z,15.78
2023-03-22T07:46:20.634Z,15.88
2023-03-22T07:48:48.332Z,16.09
2023-03-22T07:51:16.079Z,16.21
2023-03-22T07:53:44.023Z,16.31
2023-03-22T07:56:13.081Z,16.28
2023-03-22T07:58:40.755Z,16.57
2023-03-22T08:01:10.818Z,16.48
2023-03-22T08:03:39.196Z,16.52
2023-03-22T08:06:08.558Z,16.44
2023-03-22T08:08:37.096Z,16.10
2023-03-22T08:11:04.790Z,15.95
2023-03-22T08:13:33.883Z,16.49
2023-03-22T08:16:02.033Z,16.41
2023-03-22T08:18:29.707Z,16.37
2023-03-22T08:20:58.836Z,16.39
2023-03-22T08:23:40.495Z,16.43
2023-03-22T08:26:09.623Z,16.53
2023-03-22T08:28:38.760Z,16.84
2023-03-22T08:31:13.946Z,16.34
2023-03-22T08:33:43.140Z,16.83
2023-03-22T08:36:13.677Z,16.84
2023-03-22T08:38:42.410Z,17.09
2023-03-22T08:41:10.747Z,16.79
2023-03-22T08:43:39.848Z,16.69
2023-03-22T08:46:07.842Z,16.06
2023-03-22T08:48:37.921Z,16.98
2023-03-22T08:51:06.799Z,17.06
2023-03-22T08:53:34.675Z,16.67
2023-03-22T08:56:03.743Z,17.44
2023-03-22T08:58:31.605Z,16.79
2023-03-22T09:01:00.760Z,17.12
2023-03-22T09:03:28.644Z,16.52
2023-03-22T09:05:56.309Z,16.66
2023-03-22T09:08:24.013Z,16.58
2023-03-22T09:10:52.280Z,16.54
2023-03-22T09:13:20.428Z,17.12
2023-03-22T09:15:48.808Z,16.83
2023-03-22T09:18:17.907Z,16.97
2023-03-22T09:20:46.027Z,16.60
2023-03-22T09:23:15.160Z,16.68
2023-03-22T09:25:54.198Z,16.79
2023-03-22T09:28:21.942Z,16.81
2023-03-22T09:30:51.287Z,17.02
2023-03-22T09:33:20.545Z,17.04
2023-03-22T09:35:48.510Z,17.29
2023-03-22T09:38:16.169Z,17.15
2023-03-22T09:40:49.885Z,16.94
2023-03-22T09:43:17.710Z,17.64
2023-03-22T09:45:48.296Z,17.88
2023-03-22T09:48:21.731Z,17.70
2023-03-22T09:50:50.952Z,17.35
2023-03-22T09:53:19.406Z,16.84
2023-03-22T09:55:53.777Z,16.78
2023-03-22T09:58:27.104Z,16.84
2023-03-22T10:00:59.078Z,16.78
2023-03-22T10:03:40.636Z,16.33
2023-03-22T10:06:15.383Z,16.95
2023-03-22T10:08:51.910Z,17.43
2023-03-22T10:11:26.740Z,17.67
2023-03-22T10:14:06.542Z,17.14
2023-03-22T10:16:35.725Z,16.87
2023-03-22T10:19:08.795Z,16.80
2023-03-22T10:21:37.031Z,16.62
2023-03-22T10:24:09.330Z,16.63
2023-03-22T10:26:40.193Z,17.15
2023-03-22T10:29:12.919Z,16.20
2023-03-22T10:31:44.085Z,16.17
2023-03-22T10:34:20.850Z,17.00
2023-03-22T10:36:50.784Z,16.61
2023-03-22T10:39:28.616Z,17.72
2023-03-22T10:41:58.242Z,17.20
2023-03-22T10:44:27.862Z,17.35
2023-03-22T10:46:57.490Z,17.56
2023-03-22T10:49:31.709Z,17.32
2023-03-22T10:52:10.723Z,18.21
2023-03-22T10:54:38.511Z,18.13
2023-03-22T10:57:08.500Z,18.61
2023-03-22T10:59:49.065Z,17.75
2023-03-22T11:02:22.454Z,18.28
2023-03-22T11:04:53.661Z,17.87
2023-03-22T11:07:34.811Z,17.76
2023-03-22T11:10:24.529Z,18.69
2023-03-22T11:13:26.055Z,18.38
2023-03-22T11:15:56.750Z,18.46
2023-03-22T11:18:26.095Z,18.38
2023-03-22T11:20:58.444Z,17.72
2023-03-22T11:23:27.340Z,18.48
2023-03-22T11:25:57.737Z,18.76
2023-03-22T11:28:30.101Z,17.71
2023-03-22T11:31:07.667Z,17.82
2023-03-22T11:33:35.828Z,17.83
2023-03-22T11:36:07.660Z,17.37
2023-03-22T11:38:38.870Z,18.29
2023-03-22T11:41:09.359Z,18.71
2023-03-22T11:43:38.642Z,17.58
2023-03-22T11:46:08.453Z,18.48
2023-03-22T11:48:37.500Z,17.91
2023-03-22T11:51:09.960Z,17.91
2023-03-22T11:53:40.738Z,17.86
2023-03-22T11:56:11.157Z,16.83
2023-03-22T11:58:51.823Z,18.14
2023-03-22T12:01:22.575Z,18.44
2023-03-22T12:03:53.415Z,17.82
2023-03-22T12:06:24.814Z,17.46
2023-03-22T12:08:56.563Z,17.82
2023-03-22T12:11:29.102Z,17.06
2023-03-22T12:13:59.295Z,17.29
2023-03-22T12:16:31.510Z,16.63
2023-03-22T12:19:06.296Z,16.79
2023-03-22T12:24:33.981Z,16.88
2023-03-22T12:27:06.638Z,16.58
2023-03-22T12:29:35.098Z,16.17
2023-03-22T12:32:26.679Z,16.48
2023-03-22T12:34:57.985Z,15.94
2023-03-22T12:37:38.377Z,15.72
2023-03-22T12:40:16.629Z,16.34
2023-03-22T12:42:54.120Z,16.14
2023-03-22T12:45:27.403Z,16.19
2023-03-22T12:47:58.455Z,16.10
2023-03-22T12:50:30.482Z,16.19
2023-03-22T12:52:58.711Z,16.25
2023-03-22T12:55:31.444Z,16.37
2023-03-22T12:57:59.555Z,15.87
2023-03-22T13:00:29.475Z,16.62
2023-03-22T13:03:01.270Z,16.60
2023-03-22T13:05:30.932Z,16.96
2023-03-22T13:11:01.313Z,16.47
2023-03-22T13:13:42.429Z,16.88
2023-03-22T13:16:24.566Z,17.41
2023-03-22T13:19:01.870Z,17.10
2023-03-22T13:21:31.545Z,17.18
2023-03-22T13:24:02.107Z,17.50
2023-03-22T13:26:36.874Z,17.98
2023-03-22T13:29:11.995Z,17.68
2023-03-22T13:31:44.074Z,18.21
2023-03-22T13:34:17.957Z,17.86
2023-03-22T13:36:56.758Z,18.00
2023-03-22T13:39:28.330Z,17.88
2023-03-22T13:42:08.769Z,17.38
2023-03-22T13:44:42.888Z,17.18
2023-03-22T13:47:31.504Z,17.25
2023-03-22T13:50:02.284Z,17.31
2023-03-22T13:52:35.871Z,17.28
2023-03-22T13:55:04.608Z,16.49
2023-03-22T13:57:56.966Z,17.62
2023-03-22T14:00:41.351Z,17.41
2023-03-22T14:03:16.239Z,17.46
2023-03-22T14:05:46.164Z,17.46
2023-03-22T14:10:55.388Z,17.46
2023-03-22T14:13:30.827Z,17.10
2023-03-22T14:16:01.090Z,17.38
2023-03-22T14:18:30.554Z,17.19
2023-03-22T14:21:00.197Z,17.08
